sensor_id;sensor_type;location;lat;lon;timestamp;P1;durP1;ratioP1;P2;durP2;ratioP2
31130;SDS011;20292;50.944;4.034;2022-12-07T00:01:43;21.98;;;11.68;;
31130;SDS011;20292;50.944;4.034;2022-12-07T00:04:10;23.00;;;12.07;;
31130;SDS011;20292;50.944;4.034;2022-12-07T00:06:39;22.88;;;12.13;;
31130;SDS011;20292;50.944;4.034;2022-12-07T00:09:06;21.60;;;11.18;;
31130;SDS011;20292;50.944;4.034;2022-12-07T00:11:34;22.63;;;11.70;;
31130;SDS011;20292;50.944;4.034;2022-12-07T00:14:01;24.17;;;14.40;;
31130;SDS011;20292;50.944;4.034;2022-12-07T00:16:30;19.70;;;11.95;;
31130;SDS011;20292;50.944;4.034;2022-12-07T00:18:57;22.23;;;11.50;;
31130;SDS011;20292;50.944;4.034;2022-12-07T00:21:24;22.00;;;11.98;;
31130;SDS011;20292;50.944;4.034;2022-12-07T00:23:53;21.95;;;11.80;;
31130;SDS011;20292;50.944;4.034;2022-12-07T00:26:30;22.30;;;10.95;;
31130;SDS011;20292;50.944;4.034;2022-12-07T00:29:03;24.00;;;12.07;;
31130;SDS011;20292;50.944;4.034;2022-12-07T00:31:35;15.15;;;10.13;;
31130;SDS011;20292;50.944;4.034;2022-12-07T00:34:04;18.25;;;10.88;;
31130;SDS011;20292;50.944;4.034;2022-12-07T00:36:30;18.85;;;11.20;;
31130;SDS011;20292;50.944;4.034;2022-12-07T00:38:57;17.17;;;10.88;;
31130;SDS011;20292;50.944;4.034;2022-12-07T00:41:24;18.17;;;10.15;;
31130;SDS011;20292;50.944;4.034;2022-12-07T00:43:51;23.63;;;10.38;;
31130;SDS011;20292;50.944;4.034;2022-12-07T00:46:18;22.33;;;10.80;;
31130;SDS011;20292;50.944;4.034;2022-12-07T00:48:44;16.23;;;9.80;;
31130;SDS011;20292;50.944;4.034;2022-12-07T00:51:10;17.13;;;10.32;;
31130;SDS011;20292;50.944;4.034;2022-12-07T00:53:37;17.08;;;10.00;;
31130;SDS011;20292;50.944;4.034;2022-12-07T00:56:07;21.58;;;10.18;;
31130;SDS011;20292;50.944;4.034;2022-12-07T00:58:40;16.15;;;9.40;;
31130;SDS011;20292;50.944;4.034;2022-12-07T01:01:06;16.70;;;9.73;;
31130;SDS011;20292;50.944;4.034;2022-12-07T01:03:33;21.52;;;10.57;;
31130;SDS011;20292;50.944;4.034;2022-12-07T01:05:59;17.80;;;9.45;;
31130;SDS011;20292;50.944;4.034;2022-12-07T01:08:25;17.50;;;10.00;;
31130;SDS011;20292;50.944;4.034;2022-12-07T01:10:58;16.25;;;8.73;;
31130;SDS011;20292;50.944;4.034;2022-12-07T01:13:26;17.65;;;10.25;;
31130;SDS011;20292;50.944;4.034;2022-12-07T01:15:55;17.20;;;9.35;;
31130;SDS011;20292;50.944;4.034;2022-12-07T01:18:23;17.45;;;9.23;;
31130;SDS011;20292;50.944;4.034;2022-12-07T01:21:22;19.83;;;9.43;;
31130;SDS011;20292;50.944;4.034;2022-12-07T01:23:42;15.15;;;8.65;;
31130;SDS011;20292;50.944;4.034;2022-12-07T01:26:12;14.80;;;8.68;;
31130;SDS011;20292;50.944;4.034;2022-12-07T01:28:39;17.63;;;9.05;;
31130;SDS011;20292;50.944;4.034;2022-12-07T01:31:06;16.88;;;9.02;;
31130;SDS011;20292;50.944;4.034;2022-12-07T01:33:36;14.90;;;8.68;;
31130;SDS011;20292;50.944;4.034;2022-12-07T01:36:04;17.88;;;8.30;;
31130;SDS011;20292;50.944;4.034;2022-12-07T01:38:31;15.00;;;7.43;;
31130;SDS011;20292;50.944;4.034;2022-12-07T01:40:57;16.60;;;8.65;;
31130;SDS011;20292;50.944;4.034;2022-12-07T01:43:24;17.38;;;7.53;;
31130;SDS011;20292;50.944;4.034;2022-12-07T01:45:51;20.00;;;8.15;;
31130;SDS011;20292;50.944;4.034;2022-12-07T01:48:18;13.55;;;7.32;;
31130;SDS011;20292;50.944;4.034;2022-12-07T01:50:50;16.42;;;7.45;;
31130;SDS011;20292;50.944;4.034;2022-12-07T01:53:18;14.60;;;6.80;;
31130;SDS011;20292;50.944;4.034;2022-12-07T01:55:45;15.52;;;7.07;;
31130;SDS011;20292;50.944;4.034;2022-12-07T01:58:12;17.05;;;6.72;;
31130;SDS011;20292;50.944;4.034;2022-12-07T02:00:39;15.55;;;6.28;;
31130;SDS011;20292;50.944;4.034;2022-12-07T02:03:07;14.55;;;6.80;;
31130;SDS011;20292;50.944;4.034;2022-12-07T02:05:52;15.15;;;6.20;;
31130;SDS011;20292;50.944;4.034;2022-12-07T02:08:19;13.90;;;6.80;;
31130;SDS011;20292;50.944;4.034;2022-12-07T02:10:45;9.50;;;5.65;;
31130;SDS011;20292;50.944;4.034;2022-12-07T02:13:15;19.38;;;7.10;;
31130;SDS011;20292;50.944;4.034;2022-12-07T02:18:48;15.93;;;7.03;;
31130;SDS011;20292;50.944;4.034;2022-12-07T02:26:40;13.82;;;6.28;;
31130;SDS011;20292;50.944;4.034;2022-12-07T02:29:40;12.85;;;5.90;;
31130;SDS011;20292;50.944;4.034;2022-12-07T02:32:10;12.10;;;6.00;;
31130;SDS011;20292;50.944;4.034;2022-12-07T02:34:50;15.25;;;6.00;;
31130;SDS011;20292;50.944;4.034;2022-12-07T02:37:41;11.43;;;6.40;;
31130;SDS011;20292;50.944;4.034;2022-12-07T02:40:21;20.02;;;6.90;;
31130;SDS011;20292;50.944;4.034;2022-12-07T02:42:53;19.02;;;6.43;;
31130;SDS011;20292;50.944;4.034;2022-12-07T02:45:26;15.73;;;6.53;;
31130;SDS011;20292;50.944;4.034;2022-12-07T02:47:55;14.70;;;6.90;;
31130;SDS011;20292;50.944;4.034;2022-12-07T02:50:23;15.63;;;6.60;;
31130;SDS011;20292;50.944;4.034;2022-12-07T02:52:49;14.68;;;7.10;;
31130;SDS011;20292;50.944;4.034;2022-12-07T02:55:15;12.40;;;7.47;;
31130;SDS011;20292;50.944;4.034;2022-12-07T03:00:59;18.38;;;8.05;;
31130;SDS011;20292;50.944;4.034;2022-12-07T03:03:36;17.35;;;8.15;;
31130;SDS011;20292;50.944;4.034;2022-12-07T03:08:46;15.18;;;7.28;;
31130;SDS011;20292;50.944;4.034;2022-12-07T03:11:21;14.00;;;7.65;;
31130;SDS011;20292;50.944;4.034;2022-12-07T03:14:02;17.45;;;8.35;;
31130;SDS011;20292;50.944;4.034;2022-12-07T03:17:03;16.73;;;8.10;;
31130;SDS011;20292;50.944;4.034;2022-12-07T03:19:39;20.00;;;8.43;;
31130;SDS011;20292;50.944;4.034;2022-12-07T03:22:07;17.52;;;8.35;;
31130;SDS011;20292;50.944;4.034;2022-12-07T03:24:46;17.50;;;8.82;;
31130;SDS011;20292;50.944;4.034;2022-12-07T03:30:08;15.02;;;7.95;;
31130;SDS011;20292;50.944;4.034;2022-12-07T03:32:48;17.73;;;8.52;;
31130;SDS011;20292;50.944;4.034;2022-12-07T03:35:34;20.98;;;8.25;;
31130;SDS011;20292;50.944;4.034;2022-12-07T03:40:44;21.13;;;9.13;;
31130;SDS011;20292;50.944;4.034;2022-12-07T03:43:15;16.15;;;8.95;;
31130;SDS011;20292;50.944;4.034;2022-12-07T03:45:43;20.92;;;9.27;;
31130;SDS011;20292;50.944;4.034;2022-12-07T03:48:22;19.27;;;9.80;;
31130;SDS011;20292;50.944;4.034;2022-12-07T03:50:54;19.17;;;10.25;;
31130;SDS011;20292;50.944;4.034;2022-12-07T03:53:32;20.48;;;9.63;;
31130;SDS011;20292;50.944;4.034;2022-12-07T03:56:03;21.65;;;9.63;;
31130;SDS011;20292;50.944;4.034;2022-12-07T03:58:30;20.20;;;10.35;;
31130;SDS011;20292;50.944;4.034;2022-12-07T04:00:57;20.55;;;10.32;;
31130;SDS011;20292;50.944;4.034;2022-12-07T04:03:23;21.23;;;10.27;;
31130;SDS011;20292;50.944;4.034;2022-12-07T04:05:48;20.10;;;10.48;;
31130;SDS011;20292;50.944;4.034;2022-12-07T04:08:14;21.35;;;10.63;;
31130;SDS011;20292;50.944;4.034;2022-12-07T04:10:39;21.27;;;10.25;;
31130;SDS011;20292;50.944;4.034;2022-12-07T04:13:05;25.20;;;10.43;;
31130;SDS011;20292;50.944;4.034;2022-12-07T04:15:31;18.40;;;9.30;;
31130;SDS011;20292;50.944;4.034;2022-12-07T04:17:56;20.40;;;9.55;;
31130;SDS011;20292;50.944;4.034;2022-12-07T04:20:22;19.02;;;9.45;;
31130;SDS011;20292;50.944;4.034;2022-12-07T04:22:47;21.33;;;9.50;;
31130;SDS011;20292;50.944;4.034;2022-12-07T04:25:13;18.10;;;9.30;;
31130;SDS011;20292;50.944;4.034;2022-12-07T04:27:38;17.92;;;9.40;;
31130;SDS011;20292;50.944;4.034;2022-12-07T04:30:04;17.92;;;9.35;;
31130;SDS011;20292;50.944;4.034;2022-12-07T04:32:30;18.35;;;9.38;;
31130;SDS011;20292;50.944;4.034;2022-12-07T04:34:56;27.75;;;10.32;;
31130;SDS011;20292;50.944;4.034;2022-12-07T04:37:21;21.13;;;9.48;;
31130;SDS011;20292;50.944;4.034;2022-12-07T04:39:47;24.38;;;10.00;;
31130;SDS011;20292;50.944;4.034;2022-12-07T04:42:13;22.02;;;10.32;;
31130;SDS011;20292;50.944;4.034;2022-12-07T04:44:39;20.48;;;9.93;;
31130;SDS011;20292;50.944;4.034;2022-12-07T04:47:04;16.70;;;8.43;;
31130;SDS011;20292;50.944;4.034;2022-12-07T04:49:30;18.85;;;9.32;;
31130;SDS011;20292;50.944;4.034;2022-12-07T04:51:56;19.13;;;8.57;;
31130;SDS011;20292;50.944;4.034;2022-12-07T04:54:21;21.77;;;9.50;;
31130;SDS011;20292;50.944;4.034;2022-12-07T04:56:47;19.05;;;9.02;;
31130;SDS011;20292;50.944;4.034;2022-12-07T04:59:13;18.55;;;9.50;;
31130;SDS011;20292;50.944;4.034;2022-12-07T05:01:39;19.90;;;9.77;;
31130;SDS011;20292;50.944;4.034;2022-12-07T05:04:05;16.95;;;9.40;;
31130;SDS011;20292;50.944;4.034;2022-12-07T05:06:31;18.63;;;9.85;;
31130;SDS011;20292;50.944;4.034;2022-12-07T05:08:57;25.08;;;9.00;;
31130;SDS011;20292;50.944;4.034;2022-12-07T05:11:23;20.67;;;9.27;;
31130;SDS011;20292;50.944;4.034;2022-12-07T05:14:06;16.92;;;9.40;;
31130;SDS011;20292;50.944;4.034;2022-12-07T05:16:32;21.38;;;9.48;;
31130;SDS011;20292;50.944;4.034;2022-12-07T05:18:58;19.33;;;9.43;;
31130;SDS011;20292;50.944;4.034;2022-12-07T05:21:24;16.80;;;8.77;;
31130;SDS011;20292;50.944;4.034;2022-12-07T05:23:49;23.33;;;10.05;;
31130;SDS011;20292;50.944;4.034;2022-12-07T05:26:15;24.80;;;10.07;;
31130;SDS011;20292;50.944;4.034;2022-12-07T05:28:41;20.52;;;8.77;;
31130;SDS011;20292;50.944;4.034;2022-12-07T05:31:06;16.83;;;9.23;;
31130;SDS011;20292;50.944;4.034;2022-12-07T05:33:32;23.83;;;9.18;;
31130;SDS011;20292;50.944;4.034;2022-12-07T05:35:57;21.90;;;9.50;;
31130;SDS011;20292;50.944;4.034;2022-12-07T05:38:23;22.17;;;8.82;;
31130;SDS011;20292;50.944;4.034;2022-12-07T05:40:50;15.77;;;8.68;;
31130;SDS011;20292;50.944;4.034;2022-12-07T05:43:15;21.02;;;8.80;;
31130;SDS011;20292;50.944;4.034;2022-12-07T05:45:41;17.13;;;8.32;;
31130;SDS011;20292;50.944;4.034;2022-12-07T05:48:07;16.80;;;8.30;;
31130;SDS011;20292;50.944;4.034;2022-12-07T05:50:32;22.17;;;8.48;;
31130;SDS011;20292;50.944;4.034;2022-12-07T05:52:58;14.70;;;6.80;;
31130;SDS011;20292;50.944;4.034;2022-12-07T05:55:23;25.27;;;7.38;;
31130;SDS011;20292;50.944;4.034;2022-12-07T05:57:49;20.45;;;7.70;;
31130;SDS011;20292;50.944;4.034;2022-12-07T06:00:33;15.23;;;7.80;;
31130;SDS011;20292;50.944;4.034;2022-12-07T06:02:58;19.00;;;6.97;;
31130;SDS011;20292;50.944;4.034;2022-12-07T06:05:24;20.48;;;7.38;;
31130;SDS011;20292;50.944;4.034;2022-12-07T06:07:49;15.32;;;7.38;;
31130;SDS011;20292;50.944;4.034;2022-12-07T06:10:15;17.75;;;7.60;;
31130;SDS011;20292;50.944;4.034;2022-12-07T06:12:40;24.42;;;7.60;;
31130;SDS011;20292;50.944;4.034;2022-12-07T06:15:08;13.52;;;7.13;;
31130;SDS011;20292;50.944;4.034;2022-12-07T06:17:35;20.70;;;8.82;;
31130;SDS011;20292;50.944;4.034;2022-12-07T06:20:01;16.67;;;8.27;;
31130;SDS011;20292;50.944;4.034;2022-12-07T06:22:26;25.35;;;8.02;;
31130;SDS011;20292;50.944;4.034;2022-12-07T06:24:52;23.25;;;7.82;;
31130;SDS011;20292;50.944;4.034;2022-12-07T06:27:18;22.50;;;7.65;;
31130;SDS011;20292;50.944;4.034;2022-12-07T06:29:43;16.60;;;7.90;;
31130;SDS011;20292;50.944;4.034;2022-12-07T06:32:09;15.02;;;7.35;;
31130;SDS011;20292;50.944;4.034;2022-12-07T06:34:34;16.30;;;7.18;;
31130;SDS011;20292;50.944;4.034;2022-12-07T06:37:00;20.42;;;7.72;;
31130;SDS011;20292;50.944;4.034;2022-12-07T06:39:26;16.80;;;7.15;;
31130;SDS011;20292;50.944;4.034;2022-12-07T06:41:52;15.27;;;6.25;;
31130;SDS011;20292;50.944;4.034;2022-12-07T06:44:18;21.80;;;8.70;;
31130;SDS011;20292;50.944;4.034;2022-12-07T06:46:45;19.80;;;7.03;;
31130;SDS011;20292;50.944;4.034;2022-12-07T06:49:10;25.80;;;7.80;;
31130;SDS011;20292;50.944;4.034;2022-12-07T06:51:36;25.55;;;7.38;;
31130;SDS011;20292;50.944;4.034;2022-12-07T06:54:06;18.23;;;7.63;;
31130;SDS011;20292;50.944;4.034;2022-12-07T06:56:35;26.20;;;8.38;;
31130;SDS011;20292;50.944;4.034;2022-12-07T06:59:01;17.55;;;7.05;;
31130;SDS011;20292;50.944;4.034;2022-12-07T07:01:27;23.63;;;7.32;;
31130;SDS011;20292;50.944;4.034;2022-12-07T07:03:53;16.45;;;7.10;;
31130;SDS011;20292;50.944;4.034;2022-12-07T07:06:18;19.35;;;7.15;;
31130;SDS011;20292;50.944;4.034;2022-12-07T07:08:44;21.40;;;7.80;;
31130;SDS011;20292;50.944;4.034;2022-12-07T07:11:09;20.50;;;7.80;;
31130;SDS011;20292;50.944;4.034;2022-12-07T07:13:35;15.25;;;7.82;;
31130;SDS011;20292;50.944;4.034;2022-12-07T07:16:01;17.08;;;7.32;;
31130;SDS011;20292;50.944;4.034;2022-12-07T07:18:27;15.52;;;6.72;;
31130;SDS011;20292;50.944;4.034;2022-12-07T07:20:53;14.93;;;7.78;;
31130;SDS011;20292;50.944;4.034;2022-12-07T07:23:19;25.83;;;8.75;;
31130;SDS011;20292;50.944;4.034;2022-12-07T07:25:46;20.85;;;8.10;;
31130;SDS011;20292;50.944;4.034;2022-12-07T07:28:11;20.23;;;8.15;;
31130;SDS011;20292;50.944;4.034;2022-12-07T07:30:37;30.08;;;8.45;;
31130;SDS011;20292;50.944;4.034;2022-12-07T07:33:03;26.77;;;8.48;;
31130;SDS011;20292;50.944;4.034;2022-12-07T07:35:29;23.65;;;8.98;;
31130;SDS011;20292;50.944;4.034;2022-12-07T07:37:56;26.00;;;9.35;;
31130;SDS011;20292;50.944;4.034;2022-12-07T07:40:21;20.55;;;8.60;;
31130;SDS011;20292;50.944;4.034;2022-12-07T07:42:48;20.75;;;8.13;;
31130;SDS011;20292;50.944;4.034;2022-12-07T07:45:14;19.50;;;8.25;;
31130;SDS011;20292;50.944;4.034;2022-12-07T07:47:40;26.52;;;8.80;;
31130;SDS011;20292;50.944;4.034;2022-12-07T07:50:05;22.20;;;8.82;;
31130;SDS011;20292;50.944;4.034;2022-12-07T07:52:31;18.00;;;8.50;;
31130;SDS011;20292;50.944;4.034;2022-12-07T07:54:57;21.75;;;8.48;;
31130;SDS011;20292;50.944;4.034;2022-12-07T07:57:22;20.42;;;9.07;;
31130;SDS011;20292;50.944;4.034;2022-12-07T07:59:48;22.38;;;8.52;;
31130;SDS011;20292;50.944;4.034;2022-12-07T08:02:15;22.40;;;9.23;;
31130;SDS011;20292;50.944;4.034;2022-12-07T08:04:41;23.02;;;8.70;;
31130;SDS011;20292;50.944;4.034;2022-12-07T08:07:07;16.48;;;8.27;;
31130;SDS011;20292;50.944;4.034;2022-12-07T08:09:33;23.50;;;8.52;;
31130;SDS011;20292;50.944;4.034;2022-12-07T08:11:59;22.40;;;9.18;;
31130;SDS011;20292;50.944;4.034;2022-12-07T08:14:24;19.88;;;8.65;;
31130;SDS011;20292;50.944;4.034;2022-12-07T08:16:52;19.60;;;8.35;;
31130;SDS011;20292;50.944;4.034;2022-12-07T08:19:17;18.33;;;9.13;;
31130;SDS011;20292;50.944;4.034;2022-12-07T08:21:43;25.83;;;8.48;;
31130;SDS011;20292;50.944;4.034;2022-12-07T08:24:09;21.98;;;9.55;;
31130;SDS011;20292;50.944;4.034;2022-12-07T08:26:34;20.50;;;8.20;;
31130;SDS011;20292;50.944;4.034;2022-12-07T08:29:00;20.60;;;8.90;;
31130;SDS011;20292;50.944;4.034;2022-12-07T08:31:25;24.20;;;9.07;;
31130;SDS011;20292;50.944;4.034;2022-12-07T08:33:52;21.80;;;8.68;;
31130;SDS011;20292;50.944;4.034;2022-12-07T08:36:18;19.52;;;8.40;;
31130;SDS011;20292;50.944;4.034;2022-12-07T08:38:44;21.77;;;8.82;;
31130;SDS011;20292;50.944;4.034;2022-12-07T08:41:09;20.45;;;8.65;;
31130;SDS011;20292;50.944;4.034;2022-12-07T08:43:35;19.58;;;8.40;;
31130;SDS011;20292;50.944;4.034;2022-12-07T08:48:30;23.13;;;8.95;;
31130;SDS011;20292;50.944;4.034;2022-12-07T08:50:57;22.65;;;9.02;;
31130;SDS011;20292;50.944;4.034;2022-12-07T08:53:23;23.38;;;9.05;;
31130;SDS011;20292;50.944;4.034;2022-12-07T08:55:48;20.77;;;10.05;;
31130;SDS011;20292;50.944;4.034;2022-12-07T08:58:14;19.80;;;7.80;;
31130;SDS011;20292;50.944;4.034;2022-12-07T09:00:40;16.52;;;7.47;;
31130;SDS011;20292;50.944;4.034;2022-12-07T09:03:06;18.75;;;7.75;;
31130;SDS011;20292;50.944;4.034;2022-12-07T09:05:32;18.85;;;7.55;;
31130;SDS011;20292;50.944;4.034;2022-12-07T09:07:59;16.10;;;7.55;;
31130;SDS011;20292;50.944;4.034;2022-12-07T09:10:26;19.83;;;7.68;;
31130;SDS011;20292;50.944;4.034;2022-12-07T09:12:52;12.55;;;6.72;;
31130;SDS011;20292;50.944;4.034;2022-12-07T09:15:18;17.23;;;7.03;;
31130;SDS011;20292;50.944;4.034;2022-12-07T09:17:43;13.77;;;6.75;;
31130;SDS011;20292;50.944;4.034;2022-12-07T09:20:09;19.08;;;7.10;;
31130;SDS011;20292;50.944;4.034;2022-12-07T09:22:35;18.45;;;7.50;;
31130;SDS011;20292;50.944;4.034;2022-12-07T09:25:01;25.83;;;7.95;;
31130;SDS011;20292;50.944;4.034;2022-12-07T09:27:28;19.45;;;6.75;;
31130;SDS011;20292;50.944;4.034;2022-12-07T09:29:53;19.88;;;7.03;;
31130;SDS011;20292;50.944;4.034;2022-12-07T09:32:19;22.15;;;7.85;;
31130;SDS011;20292;50.944;4.034;2022-12-07T09:34:45;13.63;;;6.32;;
31130;SDS011;20292;50.944;4.034;2022-12-07T09:37:10;22.45;;;7.35;;
31130;SDS011;20292;50.944;4.034;2022-12-07T09:39:39;16.00;;;6.60;;
31130;SDS011;20292;50.944;4.034;2022-12-07T09:42:05;19.80;;;6.80;;
31130;SDS011;20292;50.944;4.034;2022-12-07T09:44:32;13.50;;;6.55;;
31130;SDS011;20292;50.944;4.034;2022-12-07T09:46:59;19.95;;;6.38;;
31130;SDS011;20292;50.944;4.034;2022-12-07T09:49:28;14.43;;;5.97;;
31130;SDS011;20292;50.944;4.034;2022-12-07T09:52:41;17.38;;;6.70;;
31130;SDS011;20292;50.944;4.034;2022-12-07T09:54:45;16.38;;;6.30;;
31130;SDS011;20292;50.944;4.034;2022-12-07T09:57:12;12.23;;;6.20;;
31130;SDS011;20292;50.944;4.034;2022-12-07T09:59:39;10.85;;;6.30;;
31130;SDS011;20292;50.944;4.034;2022-12-07T10:04:55;17.92;;;5.85;;
31130;SDS011;20292;50.944;4.034;2022-12-07T10:07:22;20.20;;;5.63;;
31130;SDS011;20292;50.944;4.034;2022-12-07T10:09:48;16.85;;;6.93;;
31130;SDS011;20292;50.944;4.034;2022-12-07T10:12:14;15.27;;;6.07;;
31130;SDS011;20292;50.944;4.034;2022-12-07T10:14:51;14.90;;;5.70;;
31130;SDS011;20292;50.944;4.034;2022-12-07T10:20:13;14.77;;;5.22;;
31130;SDS011;20292;50.944;4.034;2022-12-07T10:25:27;19.48;;;6.05;;
31130;SDS011;20292;50.944;4.034;2022-12-07T10:28:01;16.92;;;5.93;;
31130;SDS011;20292;50.944;4.034;2022-12-07T10:30:27;13.50;;;5.63;;
31130;SDS011;20292;50.944;4.034;2022-12-07T10:32:53;16.15;;;5.97;;
31130;SDS011;20292;50.944;4.034;2022-12-07T10:35:23;13.20;;;5.65;;
31130;SDS011;20292;50.944;4.034;2022-12-07T10:37:54;12.23;;;5.47;;
31130;SDS011;20292;50.944;4.034;2022-12-07T10:40:32;14.88;;;6.13;;
31130;SDS011;20292;50.944;4.034;2022-12-07T10:43:03;17.50;;;4.53;;
31130;SDS011;20292;50.944;4.034;2022-12-07T10:48:22;10.75;;;4.05;;
31130;SDS011;20292;50.944;4.034;2022-12-07T10:53:54;12.73;;;4.05;;
31130;SDS011;20292;50.944;4.034;2022-12-07T11:01:57;12.52;;;3.70;;
31130;SDS011;20292;50.944;4.034;2022-12-07T11:20:53;9.15;;;2.67;;
31130;SDS011;20292;50.944;4.034;2022-12-07T11:37:57;14.57;;;2.95;;
31130;SDS011;20292;50.944;4.034;2022-12-07T11:40:32;9.40;;;2.42;;
31130;SDS011;20292;50.944;4.034;2022-12-07T11:43:12;6.40;;;2.70;;
31130;SDS011;20292;50.944;4.034;2022-12-07T11:46:07;10.15;;;2.53;;
31130;SDS011;20292;50.944;4.034;2022-12-07T11:48:41;8.70;;;2.65;;
31130;SDS011;20292;50.944;4.034;2022-12-07T11:51:11;17.63;;;4.28;;
31130;SDS011;20292;50.944;4.034;2022-12-07T11:53:45;15.25;;;3.10;;
31130;SDS011;20292;50.944;4.034;2022-12-07T11:56:15;9.05;;;2.67;;
31130;SDS011;20292;50.944;4.034;2022-12-07T11:58:57;10.35;;;2.92;;
31130;SDS011;20292;50.944;4.034;2022-12-07T12:06:34;11.85;;;3.50;;
31130;SDS011;20292;50.944;4.034;2022-12-07T12:09:11;10.75;;;3.80;;
31130;SDS011;20292;50.944;4.034;2022-12-07T12:14:34;15.30;;;4.82;;
31130;SDS011;20292;50.944;4.034;2022-12-07T12:17:32;10.77;;;4.78;;
31130;SDS011;20292;50.944;4.034;2022-12-07T12:20:24;18.63;;;4.90;;
31130;SDS011;20292;50.944;4.034;2022-12-07T12:25:48;14.27;;;4.40;;
31130;SDS011;20292;50.944;4.034;2022-12-07T12:31:13;11.43;;;3.72;;
31130;SDS011;20292;50.944;4.034;2022-12-07T12:34:00;11.43;;;3.20;;
31130;SDS011;20292;50.944;4.034;2022-12-07T12:44:03;7.18;;;2.38;;
31130;SDS011;20292;50.944;4.034;2022-12-07T12:46:55;5.32;;;1.73;;
31130;SDS011;20292;50.944;4.034;2022-12-07T12:51:48;6.85;;;1.45;;
31130;SDS011;20292;50.944;4.034;2022-12-07T12:55:19;4.63;;;1.52;;
31130;SDS011;20292;50.944;4.034;2022-12-07T12:57:39;5.45;;;1.65;;
31130;SDS011;20292;50.944;4.034;2022-12-07T13:00:21;4.78;;;1.40;;
31130;SDS011;20292;50.944;4.034;2022-12-07T13:02:51;6.68;;;1.60;;
31130;SDS011;20292;50.944;4.034;2022-12-07T13:05:23;10.93;;;2.20;;
31130;SDS011;20292;50.944;4.034;2022-12-07T13:21:39;8.70;;;2.63;;
31130;SDS011;20292;50.944;4.034;2022-12-07T13:26:14;10.70;;;2.78;;
31130;SDS011;20292;50.944;4.034;2022-12-07T13:28:42;6.50;;;3.25;;
31130;SDS011;20292;50.944;4.034;2022-12-07T13:31:27;10.68;;;2.50;;
31130;SDS011;20292;50.944;4.034;2022-12-07T13:34:05;7.80;;;2.63;;
31130;SDS011;20292;50.944;4.034;2022-12-07T13:36:49;5.82;;;2.22;;
31130;SDS011;20292;50.944;4.034;2022-12-07T13:39:18;7.78;;;2.35;;
31130;SDS011;20292;50.944;4.034;2022-12-07T13:41:57;10.10;;;2.35;;
31130;SDS011;20292;50.944;4.034;2022-12-07T13:44:24;7.57;;;2.63;;
31130;SDS011;20292;50.944;4.034;2022-12-07T13:49:47;5.63;;;2.20;;
31130;SDS011;20292;50.944;4.034;2022-12-07T13:52:16;4.80;;;1.95;;
31130;SDS011;20292;50.944;4.034;2022-12-07T13:54:49;7.45;;;2.15;;
31130;SDS011;20292;50.944;4.034;2022-12-07T13:57:22;4.72;;;1.80;;
31130;SDS011;20292;50.944;4.034;2022-12-07T13:59:49;9.27;;;2.05;;
31130;SDS011;20292;50.944;4.034;2022-12-07T14:12:53;6.15;;;2.13;;
31130;SDS011;20292;50.944;4.034;2022-12-07T14:15:20;4.47;;;1.80;;
31130;SDS011;20292;50.944;4.034;2022-12-07T14:17:52;4.05;;;1.90;;
31130;SDS011;20292;50.944;4.034;2022-12-07T14:20:29;5.13;;;1.83;;
31130;SDS011;20292;50.944;4.034;2022-12-07T14:22:56;3.88;;;1.88;;
31130;SDS011;20292;50.944;4.034;2022-12-07T14:25:23;7.35;;;2.22;;
31130;SDS011;20292;50.944;4.034;2022-12-07T14:27:51;4.18;;;2.13;;
31130;SDS011;20292;50.944;4.034;2022-12-07T14:30:23;9.80;;;3.70;;
31130;SDS011;20292;50.944;4.034;2022-12-07T14:32:55;6.53;;;2.75;;
31130;SDS011;20292;50.944;4.034;2022-12-07T14:35:26;11.32;;;2.88;;
31130;SDS011;20292;50.944;4.034;2022-12-07T14:37:52;7.38;;;2.67;;
31130;SDS011;20292;50.944;4.034;2022-12-07T14:40:20;8.82;;;3.00;;
31130;SDS011;20292;50.944;4.034;2022-12-07T14:42:47;9.75;;;2.85;;
31130;SDS011;20292;50.944;4.034;2022-12-07T14:45:17;9.65;;;3.05;;
31130;SDS011;20292;50.944;4.034;2022-12-07T14:47:44;8.65;;;3.70;;
31130;SDS011;20292;50.944;4.034;2022-12-07T14:50:15;10.07;;;4.15;;
31130;SDS011;20292;50.944;4.034;2022-12-07T14:52:43;9.35;;;4.03;;
31130;SDS011;20292;50.944;4.034;2022-12-07T14:55:31;8.60;;;4.18;;
31130;SDS011;20292;50.944;4.034;2022-12-07T14:57:56;12.85;;;4.82;;
31130;SDS011;20292;50.944;4.034;2022-12-07T15:00:24;13.48;;;4.70;;
31130;SDS011;20292;50.944;4.034;2022-12-07T15:02:51;11.50;;;5.30;;
31130;SDS011;20292;50.944;4.034;2022-12-07T15:05:17;13.15;;;3.95;;
31130;SDS011;20292;50.944;4.034;2022-12-07T15:07:43;10.50;;;4.63;;
31130;SDS011;20292;50.944;4.034;2022-12-07T15:10:18;13.13;;;4.35;;
31130;SDS011;20292;50.944;4.034;2022-12-07T15:12:45;8.98;;;4.38;;
31130;SDS011;20292;50.944;4.034;2022-12-07T15:15:11;10.52;;;4.45;;
31130;SDS011;20292;50.944;4.034;2022-12-07T15:17:37;14.63;;;5.15;;
31130;SDS011;20292;50.944;4.034;2022-12-07T15:20:03;11.95;;;5.03;;
31130;SDS011;20292;50.944;4.034;2022-12-07T15:22:29;12.75;;;4.63;;
31130;SDS011;20292;50.944;4.034;2022-12-07T15:24:56;13.43;;;4.97;;
31130;SDS011;20292;50.944;4.034;2022-12-07T15:27:22;11.68;;;4.95;;
31130;SDS011;20292;50.944;4.034;2022-12-07T15:29:47;17.98;;;5.63;;
31130;SDS011;20292;50.944;4.034;2022-12-07T15:32:13;14.45;;;5.07;;
31130;SDS011;20292;50.944;4.034;2022-12-07T15:34:38;17.33;;;5.47;;
31130;SDS011;20292;50.944;4.034;2022-12-07T15:37:04;16.90;;;5.90;;
31130;SDS011;20292;50.944;4.034;2022-12-07T15:39:29;17.30;;;6.40;;
31130;SDS011;20292;50.944;4.034;2022-12-07T15:41:55;14.95;;;6.57;;
31130;SDS011;20292;50.944;4.034;2022-12-07T15:44:20;21.55;;;7.75;;
31130;SDS011;20292;50.944;4.034;2022-12-07T15:47:05;16.13;;;7.10;;
31130;SDS011;20292;50.944;4.034;2022-12-07T15:49:30;19.08;;;8.73;;
31130;SDS011;20292;50.944;4.034;2022-12-07T15:51:56;15.68;;;7.95;;
31130;SDS011;20292;50.944;4.034;2022-12-07T15:54:23;21.23;;;10.80;;
31130;SDS011;20292;50.944;4.034;2022-12-07T15:56:50;26.38;;;10.88;;
31130;SDS011;20292;50.944;4.034;2022-12-07T15:59:16;28.13;;;16.00;;
31130;SDS011;20292;50.944;4.034;2022-12-07T16:01:42;32.33;;;14.32;;
31130;SDS011;20292;50.944;4.034;2022-12-07T16:04:08;21.77;;;10.35;;
31130;SDS011;20292;50.944;4.034;2022-12-07T16:06:34;21.60;;;8.13;;
31130;SDS011;20292;50.944;4.034;2022-12-07T16:09:00;19.30;;;7.85;;
31130;SDS011;20292;50.944;4.034;2022-12-07T16:11:25;14.05;;;7.18;;
31130;SDS011;20292;50.944;4.034;2022-12-07T16:13:51;20.92;;;8.40;;
31130;SDS011;20292;50.944;4.034;2022-12-07T16:16:17;24.02;;;9.52;;
31130;SDS011;20292;50.944;4.034;2022-12-07T16:18:44;27.52;;;11.50;;
31130;SDS011;20292;50.944;4.034;2022-12-07T16:21:12;27.02;;;11.05;;
31130;SDS011;20292;50.944;4.034;2022-12-07T16:23:38;22.60;;;10.32;;
31130;SDS011;20292;50.944;4.034;2022-12-07T16:26:14;22.08;;;9.43;;
31130;SDS011;20292;50.944;4.034;2022-12-07T16:28:41;25.08;;;9.95;;
31130;SDS011;20292;50.944;4.034;2022-12-07T16:31:09;25.13;;;10.35;;
31130;SDS011;20292;50.944;4.034;2022-12-07T16:33:39;24.50;;;11.35;;
31130;SDS011;20292;50.944;4.034;2022-12-07T16:36:06;25.02;;;9.75;;
31130;SDS011;20292;50.944;4.034;2022-12-07T16:38:32;22.75;;;9.77;;
31130;SDS011;20292;50.944;4.034;2022-12-07T16:40:59;21.38;;;9.50;;
31130;SDS011;20292;50.944;4.034;2022-12-07T16:43:24;23.48;;;7.82;;
31130;SDS011;20292;50.944;4.034;2022-12-07T16:45:50;14.93;;;7.03;;
31130;SDS011;20292;50.944;4.034;2022-12-07T16:48:17;20.75;;;6.78;;
31130;SDS011;20292;50.944;4.034;2022-12-07T16:50:43;16.23;;;6.68;;